Time;durP1;ratioP1;P1;durP2;ratioP2;P2;SDS_P1;SDS_P2;PMS_P1;PMS_P2;Temp;Humidity;BMP_temperature;BMP_pressure;BME280_temperature;BME280_humidity;BME280_pressure;Samples;Min_cycle;Max_cycle;Signal;HPM_P1;HPM_P2
2022/04/25 00:00:57;;;;;;;11.10;5.40;;;13.10;57.50;;;;;;5040327;28;20120;-63
2022/04/25 00:03:23;;;;;;;10.63;5.80;;;13.10;57.50;;;;;;5050377;28;20021;-63
2022/04/25 00:05:49;;;;;;;9.63;5.18;;;13.10;57.60;;;;;;5049548;28;20024;-63
2022/04/25 00:08:14;;;;;;;10.70;5.43;;;13.10;57.70;;;;;;5055082;28;20223;-65
2022/04/25 00:10:40;;;;;;;10.77;5.28;;;13.10;57.80;;;;;;5043634;28;20036;-65
2022/04/25 00:13:05;;;;;;;10.18;5.55;;;13.00;57.80;;;;;;5053459;28;20064;-63
2022/04/25 00:15:31;;;;;;;9.82;5.32;;;13.00;57.90;;;;;;5053721;28;20117;-62
2022/04/25 00:17:57;;;;;;;10.25;5.30;;;13.00;57.90;;;;;;5034983;28;20083;-62
2022/04/25 00:20:22;;;;;;;9.95;5.28;;;12.90;58.00;;;;;;5042840;28;20025;-62
2022/04/25 00:22:48;;;;;;;9.77;5.47;;;12.90;58.10;;;;;;5049174;28;20342;-64
2022/04/25 00:25:13;;;;;;;9.68;5.57;;;12.90;58.10;;;;;;5054731;28;20036;-64
2022/04/25 00:27:40;;;;;;;10.38;5.63;;;12.90;58.20;;;;;;5036749;28;20083;-65
2022/04/25 00:30:07;;;;;;;9.90;5.25;;;12.90;58.30;;;;;;5049354;28;20048;-64
2022/04/25 00:32:32;;;;;;;10.38;5.80;;;12.80;58.30;;;;;;5044840;28;20084;-63
2022/04/25 00:34:58;;;;;;;8.95;5.18;;;12.80;58.40;;;;;;5052730;28;20056;-63
2022/04/25 00:37:23;;;;;;;9.90;5.82;;;12.80;58.40;;;;;;5051240;28;20063;-62
2022/04/25 00:39:49;;;;;;;12.02;5.90;;;12.80;58.50;;;;;;5049822;28;20104;-62
2022/04/25 00:42:15;;;;;;;9.82;5.45;;;12.80;58.50;;;;;;5050527;28;20041;-62
2022/04/25 00:44:41;;;;;;;10.10;6.13;;;12.70;58.50;;;;;;5053348;28;20025;-62
2022/04/25 00:47:09;;;;;;;10.75;5.78;;;12.80;58.60;;;;;;5044235;28;20572;-62
2022/04/25 00:49:35;;;;;;;10.25;5.88;;;12.70;58.60;;;;;;5040346;28;20103;-63
2022/04/25 00:52:00;;;;;;;10.68;6.05;;;12.70;58.70;;;;;;5043682;28;20171;-63
2022/04/25 00:54:26;;;;;;;10.05;5.28;;;12.70;58.80;;;;;;5054511;28;20029;-62
2022/04/25 00:56:51;;;;;;;10.15;5.72;;;12.70;58.80;;;;;;5051124;28;20101;-63
2022/04/25 00:59:21;;;;;;;11.18;6.53;;;12.70;58.90;;;;;;5054675;28;20060;-63
2022/04/25 01:01:48;;;;;;;8.27;5.28;;;12.60;59.00;;;;;;5040562;28;20025;-63
2022/04/25 01:04:13;;;;;;;9.73;6.13;;;12.60;59.00;;;;;;5052386;28;20017;-62
2022/04/25 01:06:40;;;;;;;10.88;6.10;;;12.60;59.10;;;;;;5048729;28;20024;-63
2022/04/25 01:09:06;;;;;;;10.60;6.03;;;12.50;59.20;;;;;;5033997;28;20434;-62
2022/04/25 01:11:32;;;;;;;10.32;6.50;;;12.50;59.40;;;;;;5050017;28;20188;-62
2022/04/25 01:13:57;;;;;;;11.40;5.88;;;12.50;59.50;;;;;;5054064;28;20127;-62
2022/04/25 01:16:23;;;;;;;10.10;5.97;;;12.50;59.50;;;;;;5052531;28;20111;-62
2022/04/25 01:18:49;;;;;;;11.88;5.85;;;12.40;59.50;;;;;;5034337;28;20446;-63
2022/04/25 01:21:18;;;;;;;10.57;6.07;;;12.40;59.60;;;;;;5047193;28;20041;-62
2022/04/25 01:29:13;;;;;;;11.02;6.60;;;12.40;59.80;;;;;;5052179;28;20040;-62
2022/04/25 01:31:39;;;;;;;10.63;5.90;;;12.40;59.80;;;;;;5049383;28;20052;-62
2022/04/25 01:34:05;;;;;;;12.65;5.78;;;12.40;59.80;;;;;;5039892;28;20045;-62
2022/04/25 01:36:31;;;;;;;9.90;5.75;;;12.40;59.90;;;;;;5053367;28;20108;-63
2022/04/25 01:38:56;;;;;;;10.40;5.57;;;12.30;59.90;;;;;;5046619;28;20033;-63
2022/04/25 01:41:22;;;;;;;10.25;5.85;;;12.30;60.10;;;;;;5047697;28;20029;-62
2022/04/25 01:43:47;;;;;;;11.40;5.88;;;12.30;60.00;;;;;;5034540;28;20029;-63
2022/04/25 01:46:13;;;;;;;12.77;6.35;;;12.30;60.00;;;;;;5044671;28;20041;-63
2022/04/25 01:48:39;;;;;;;12.30;6.43;;;12.30;60.10;;;;;;5038622;28;20068;-63
2022/04/25 01:51:05;;;;;;;11.88;6.53;;;12.30;60.20;;;;;;5043142;28;20064;-63
2022/04/25 01:53:30;;;;;;;11.48;5.70;;;12.20;60.20;;;;;;5053652;28;20033;-63
2022/04/25 01:55:56;;;;;;;11.13;6.63;;;12.20;60.40;;;;;;5056383;28;20036;-65
2022/04/25 01:58:22;;;;;;;12.80;6.85;;;12.20;60.40;;;;;;5055603;28;20028;-63
2022/04/25 02:00:47;;;;;;;10.73;6.20;;;12.20;60.40;;;;;;5043064;28;20055;-63
2022/04/25 02:03:13;;;;;;;10.55;6.75;;;12.20;60.50;;;;;;5044882;28;20033;-62
2022/04/25 02:05:39;;;;;;;9.52;6.07;;;12.20;60.60;;;;;;5045123;28;20124;-63
2022/04/25 02:08:05;;;;;;;12.00;6.90;;;12.20;60.70;;;;;;5053955;28;20509;-62
2022/04/25 02:10:31;;;;;;;11.55;6.82;;;12.20;60.70;;;;;;5055366;28;20029;-62
2022/04/25 02:12:56;;;;;;;13.63;7.03;;;12.10;60.60;;;;;;5048522;28;20343;-62
2022/04/25 02:15:22;;;;;;;12.40;6.63;;;12.10;60.70;;;;;;5037522;28;20022;-63
2022/04/25 02:17:48;;;;;;;12.18;6.45;;;12.10;60.80;;;;;;5051276;28;20044;-63
2022/04/25 02:20:14;;;;;;;11.95;6.50;;;12.10;60.90;;;;;;5045753;28;20029;-62
2022/04/25 02:22:40;;;;;;;11.13;6.68;;;12.00;60.90;;;;;;5054443;28;20540;-62
2022/04/25 02:25:06;;;;;;;11.40;6.57;;;12.00;61.00;;;;;;5057108;28;20354;-63
2022/04/25 02:27:32;;;;;;;10.80;6.32;;;12.00;61.10;;;;;;5054755;28;20037;-62
2022/04/25 02:29:58;;;;;;;11.68;6.72;;;11.90;61.10;;;;;;5036484;28;20327;-62
2022/04/25 02:32:24;;;;;;;11.07;6.97;;;11.90;61.30;;;;;;5050319;28;20125;-62
2022/04/25 02:34:50;;;;;;;13.93;6.72;;;11.90;61.40;;;;;;5036686;28;20029;-62
2022/04/25 02:37:16;;;;;;;12.43;6.55;;;11.90;61.50;;;;;;5048713;28;20052;-62
2022/04/25 02:39:42;;;;;;;12.07;6.30;;;11.80;61.50;;;;;;5039313;28;20051;-62
2022/04/25 02:42:08;;;;;;;11.52;6.78;;;11.80;61.50;;;;;;5057316;28;20029;-62
2022/04/25 02:44:34;;;;;;;12.13;6.85;;;11.80;61.60;;;;;;5056689;28;20029;-62
2022/04/25 02:46:59;;;;;;;13.77;7.03;;;11.80;61.70;;;;;;5057661;28;20029;-62
2022/04/25 02:49:25;;;;;;;11.73;7.18;;;11.80;61.80;;;;;;5059578;28;20043;-63
2022/04/25 02:51:50;;;;;;;12.75;7.22;;;11.80;61.90;;;;;;5050931;28;20041;-62
2022/04/25 02:54:17;;;;;;;10.10;6.13;;;11.70;61.90;;;;;;5046273;28;20034;-62
2022/04/25 02:56:42;;;;;;;14.15;7.30;;;11.70;62.00;;;;;;5035292;28;20030;-62
2022/04/25 02:59:08;;;;;;;12.85;6.82;;;11.70;62.00;;;;;;5039498;28;20018;-62
2022/04/25 03:01:34;;;;;;;12.50;6.65;;;11.70;62.10;;;;;;5041562;28;20045;-62
2022/04/25 03:04:00;;;;;;;11.40;6.57;;;11.70;62.10;;;;;;5041938;28;20025;-63
2022/04/25 03:06:25;;;;;;;12.93;7.32;;;11.70;62.10;;;;;;5036052;28;20040;-62
2022/04/25 03:08:51;;;;;;;12.55;7.45;;;11.70;62.10;;;;;;5036403;28;20037;-62
2022/04/25 03:11:17;;;;;;;12.40;6.90;;;11.70;62.20;;;;;;5049522;28;20056;-62
2022/04/25 03:13:43;;;;;;;11.50;6.53;;;11.70;62.20;;;;;;5054062;28;20489;-62
2022/04/25 03:16:09;;;;;;;12.18;6.68;;;11.70;62.30;;;;;;5054945;28;20036;-62
2022/04/25 03:18:35;;;;;;;11.93;7.47;;;11.60;62.30;;;;;;5043847;28;20029;-62
2022/04/25 03:21:01;;;;;;;12.75;6.90;;;11.60;62.40;;;;;;5034037;28;20402;-62
2022/04/25 03:23:28;;;;;;;11.25;7.22;;;11.60;62.50;;;;;;5054441;28;20025;-62
2022/04/25 03:25:54;;;;;;;12.85;7.22;;;11.60;62.50;;;;;;5055193;28;20089;-62
2022/04/25 03:28:20;;;;;;;14.32;7.10;;;11.60;62.60;;;;;;5054708;28;20025;-63
2022/04/25 03:30:46;;;;;;;11.55;6.65;;;11.60;62.70;;;;;;5055368;28;20442;-61
2022/04/25 03:33:12;;;;;;;12.10;7.07;;;11.60;62.70;;;;;;5055483;28;20071;-61
2022/04/25 03:35:42;;;;;;;12.85;7.55;;;11.60;62.70;;;;;;5044028;28;20075;-62
2022/04/25 03:38:08;;;;;;;12.73;6.80;;;11.60;62.70;;;;;;5045313;28;20463;-61
2022/04/25 03:40:37;;;;;;;12.40;7.05;;;11.60;62.70;;;;;;5054254;28;20021;-62
2022/04/25 03:43:06;;;;;;;13.27;7.88;;;11.60;62.80;;;;;;5053262;28;20040;-61
2022/04/25 03:45:32;;;;;;;13.45;7.78;;;11.60;62.80;;;;;;5054694;28;20033;-62
2022/04/25 03:47:58;;;;;;;11.50;7.13;;;11.60;62.90;;;;;;5054151;28;20040;-63
2022/04/25 03:50:24;;;;;;;14.00;7.35;;;11.60;62.90;;;;;;5054400;28;20462;-62
2022/04/25 03:52:50;;;;;;;12.82;7.20;;;11.60;63.00;;;;;;5041312;28;20072;-62
2022/04/25 03:58:02;;;;;;;14.82;7.80;;;11.60;63.10;;;;;;5053848;28;20029;-62
2022/04/25 04:00:29;;;;;;;13.25;7.80;;;11.60;63.10;;;;;;5054134;28;20021;-62
2022/04/25 04:02:56;;;;;;;15.93;8.70;;;11.70;63.10;;;;;;5053652;28;20043;-63
2022/04/25 04:05:22;;;;;;;13.63;7.50;;;11.70;63.20;;;;;;5053957;28;20040;-62
2022/04/25 04:07:49;;;;;;;12.65;7.63;;;11.70;63.20;;;;;;5053826;28;20033;-63
2022/04/25 04:10:16;;;;;;;15.35;7.63;;;11.70;63.30;;;;;;5049102;28;20393;-62
2022/04/25 04:12:43;;;;;;;13.35;7.78;;;11.70;63.40;;;;;;5049469;28;20124;-63
2022/04/25 04:15:09;;;;;;;14.02;8.00;;;11.70;63.50;;;;;;5052073;28;20037;-63
2022/04/25 04:17:35;;;;;;;14.05;8.40;;;11.70;63.50;;;;;;5044689;28;20091;-62
2022/04/25 04:20:03;;;;;;;13.13;8.80;;;11.80;63.60;;;;;;5033190;28;20036;-62
2022/04/25 04:22:32;;;;;;;12.43;8.10;;;11.80;63.70;;;;;;5045892;28;20029;-62
2022/04/25 04:25:08;;;;;;;13.73;8.48;;;11.80;63.80;;;;;;5052127;28;20033;-65
2022/04/25 04:27:34;;;;;;;12.85;8.73;;;11.80;63.90;;;;;;5054382;28;20063;-62
2022/04/25 04:30:02;;;;;;;14.13;8.82;;;11.80;63.90;;;;;;5047053;28;20372;-63
2022/04/25 04:32:29;;;;;;;13.30;9.23;;;11.80;64.00;;;;;;5045498;28;20040;-63
2022/04/25 04:34:56;;;;;;;14.93;9.30;;;11.80;64.10;;;;;;5053253;28;20029;-63
2022/04/25 04:37:23;;;;;;;14.20;9.60;;;11.80;64.20;;;;;;5053015;28;20048;-63
2022/04/25 04:39:48;;;;;;;13.68;9.10;;;11.90;64.40;;;;;;5043966;28;20032;-63
2022/04/25 04:42:14;;;;;;;14.35;9.45;;;11.80;64.40;;;;;;5054149;28;20047;-67
2022/04/25 04:44:41;;;;;;;15.52;10.00;;;11.80;64.50;;;;;;5052168;28;20343;-65
2022/04/25 04:47:06;;;;;;;13.73;10.77;;;11.90;64.60;;;;;;5053945;28;20028;-64
2022/04/25 04:49:32;;;;;;;14.75;9.55;;;11.90;64.60;;;;;;5052999;28;20044;-64
2022/04/25 04:51:58;;;;;;;14.52;10.13;;;11.90;64.60;;;;;;5049735;28;20040;-63
2022/04/25 04:54:23;;;;;;;15.23;10.43;;;11.90;64.70;;;;;;5052772;28;20029;-65
2022/04/25 04:56:49;;;;;;;16.27;10.13;;;11.90;64.70;;;;;;5054404;28;20076;-62
2022/04/25 04:59:15;;;;;;;13.68;9.95;;;11.90;64.80;;;;;;5053247;28;20028;-63
2022/04/25 05:01:40;;;;;;;13.20;9.25;;;11.90;64.80;;;;;;5053492;28;20124;-62
2022/04/25 05:04:06;;;;;;;13.70;9.80;;;11.90;64.80;;;;;;5052549;28;20029;-62
2022/04/25 05:06:33;;;;;;;15.20;9.55;;;11.90;64.90;;;;;;5054426;28;20032;-63
2022/04/25 05:08:59;;;;;;;14.02;10.18;;;11.90;64.90;;;;;;5053361;28;20060;-63
2022/04/25 05:11:24;;;;;;;15.40;10.18;;;12.00;65.00;;;;;;5052910;28;20453;-63
2022/04/25 05:13:51;;;;;;;13.35;9.40;;;11.90;64.90;;;;;;5047478;28;20416;-63
2022/04/25 05:16:16;;;;;;;15.35;9.98;;;12.00;65.10;;;;;;5055225;28;20029;-62
2022/04/25 05:18:44;;;;;;;14.38;9.38;;;12.00;65.10;;;;;;5053913;28;20028;-62
2022/04/25 05:21:12;;;;;;;13.68;9.27;;;12.00;65.10;;;;;;5053528;28;20032;-63
2022/04/25 05:23:38;;;;;;;16.98;9.90;;;12.00;65.10;;;;;;5050341;28;20033;-62
2022/04/25 05:26:03;;;;;;;16.02;10.50;;;12.00;65.20;;;;;;5051351;28;20029;-63
2022/04/25 05:28:29;;;;;;;15.13;10.02;;;12.00;65.20;;;;;;5057356;28;20350;-62
2022/04/25 05:30:54;;;;;;;14.27;10.48;;;12.00;65.30;;;;;;5058208;28;20033;-63
2022/04/25 05:33:20;;;;;;;14.32;9.82;;;11.90;65.40;;;;;;5057118;28;20044;-62
2022/04/25 05:35:46;;;;;;;17.23;11.05;;;12.00;65.50;;;;;;5054913;28;20044;-63
2022/04/25 05:38:12;;;;;;;15.27;11.05;;;12.00;66.10;;;;;;5054559;28;20381;-64
2022/04/25 05:40:39;;;;;;;15.60;10.25;;;12.00;65.60;;;;;;5049482;28;20056;-63
2022/04/25 05:43:06;;;;;;;15.90;10.57;;;12.00;65.50;;;;;;5057090;28;20370;-62
2022/04/25 05:45:32;;;;;;;16.17;11.00;;;12.10;65.60;;;;;;5055467;28;20107;-62
2022/04/25 05:47:58;;;;;;;17.73;11.55;;;12.10;65.50;;;;;;5054555;28;20036;-63
2022/04/25 05:53:11;;;;;;;15.82;10.55;;;12.10;65.60;;;;;;5044651;28;20024;-63
2022/04/25 05:55:37;;;;;;;15.88;11.13;;;12.10;65.50;;;;;;5039095;28;20492;-63
2022/04/25 05:58:04;;;;;;;17.38;12.23;;;12.10;65.50;;;;;;5037386;28;20034;-63
2022/04/25 06:00:31;;;;;;;19.15;12.25;;;12.10;65.60;;;;;;5051895;28;20029;-63
2022/04/25 06:02:57;;;;;;;17.95;12.70;;;12.10;65.70;;;;;;5036765;28;20029;-63
2022/04/25 06:05:26;;;;;;;17.65;11.98;;;12.10;65.70;;;;;;5035588;28;20486;-64
2022/04/25 06:07:52;;;;;;;21.73;12.27;;;12.10;65.80;;;;;;5043738;28;20056;-63
2022/04/25 06:10:19;;;;;;;18.35;12.70;;;12.10;65.90;;;;;;5042143;28;20373;-62
2022/04/25 06:12:51;;;;;;;18.13;12.77;;;12.10;65.90;;;;;;5042498;28;20043;-62
2022/04/25 06:15:18;;;;;;;17.15;12.60;;;12.20;66.00;;;;;;5047085;28;20057;-63
2022/04/25 06:17:44;;;;;;;18.15;12.77;;;12.20;65.90;;;;;;5039185;28;20029;-63
2022/04/25 06:20:10;;;;;;;19.08;13.88;;;12.20;65.80;;;;;;5044437;28;20096;-63
2022/04/25 06:22:37;;;;;;;19.60;13.68;;;12.20;65.80;;;;;;5050635;28;20028;-63
2022/04/25 06:25:06;;;;;;;16.63;12.27;;;12.20;65.90;;;;;;5039236;28;20460;-63
2022/04/25 06:27:32;;;;;;;17.58;11.85;;;12.20;65.90;;;;;;5050956;28;20021;-63
2022/04/25 06:29:58;;;;;;;17.95;12.15;;;12.20;66.00;;;;;;5051886;28;20051;-61
2022/04/25 06:32:25;;;;;;;20.45;13.35;;;12.20;66.00;;;;;;5042020;28;20045;-63
2022/04/25 06:34:51;;;;;;;22.35;13.30;;;12.30;66.20;;;;;;5045928;28;20147;-63
2022/04/25 06:37:17;;;;;;;20.00;12.90;;;12.30;66.20;;;;;;5051830;28;20109;-64
2022/04/25 06:39:42;;;;;;;17.63;12.55;;;12.30;66.20;;;;;;5050664;28;20040;-63
2022/04/25 06:42:12;;;;;;;16.73;13.10;;;12.30;66.30;;;;;;5046122;28;20041;-63
2022/04/25 06:44:38;;;;;;;17.15;12.45;;;12.20;66.20;;;;;;5057263;28;20025;-63
2022/04/25 06:47:04;;;;;;;18.23;12.15;;;12.20;66.50;;;;;;5055638;28;20043;-65
2022/04/25 06:49:30;;;;;;;19.58;12.98;;;12.20;66.70;;;;;;5044347;28;20053;-62
2022/04/25 06:51:58;;;;;;;19.45;13.45;;;12.20;66.90;;;;;;5054768;28;20412;-62
2022/04/25 06:54:25;;;;;;;16.35;12.35;;;12.20;67.10;;;;;;5052091;28;20394;-62
2022/04/25 06:56:52;;;;;;;17.55;12.68;;;12.20;67.30;;;;;;5046910;28;20032;-62
2022/04/25 06:59:19;;;;;;;17.00;11.90;;;12.20;67.50;;;;;;5054581;28;20036;-62
2022/04/25 07:01:45;;;;;;;17.33;12.05;;;12.20;67.60;;;;;;5053497;28;20032;-62
2022/04/25 07:04:13;;;;;;;18.15;12.23;;;12.20;67.60;;;;;;5056143;28;20468;-62
2022/04/25 07:06:39;;;;;;;16.30;12.15;;;12.20;67.70;;;;;;5045932;28;20442;-62
2022/04/25 07:09:07;;;;;;;16.60;12.07;;;12.20;67.80;;;;;;5054723;28;20086;-62
2022/04/25 07:11:33;;;;;;;18.63;11.63;;;12.10;67.90;;;;;;5037577;28;20030;-62
2022/04/25 07:14:04;;;;;;;16.77;11.50;;;12.10;68.10;;;;;;5036806;28;20056;-62
2022/04/25 07:16:30;;;;;;;16.15;12.13;;;12.10;68.30;;;;;;5051016;28;20044;-62
2022/04/25 07:18:57;;;;;;;16.65;11.75;;;12.10;68.40;;;;;;5053807;28;20029;-62
2022/04/25 07:29:35;;;;;;;16.17;11.73;;;12.00;68.80;;;;;;5049224;28;20044;-62
2022/04/25 07:32:00;;;;;;;19.42;12.63;;;11.90;68.90;;;;;;5056207;28;20025;-62
2022/04/25 07:34:26;;;;;;;17.80;12.45;;;11.90;68.90;;;;;;5055900;28;20041;-63
2022/04/25 07:36:53;;;;;;;17.42;12.15;;;11.90;68.80;;;;;;5056137;28;20029;-62
2022/04/25 07:39:19;;;;;;;17.70;12.15;;;11.90;68.70;;;;;;5056082;28;20404;-62
2022/04/25 07:41:45;;;;;;;19.63;12.93;;;11.90;68.60;;;;;;5056166;28;20327;-63
2022/04/25 07:44:11;;;;;;;16.77;12.57;;;11.90;68.70;;;;;;5056090;28;20358;-62
2022/04/25 07:46:40;;;;;;;18.75;12.57;;;11.90;68.80;;;;;;5056541;28;20033;-63
2022/04/25 07:49:05;;;;;;;17.05;11.93;;;11.80;68.70;;;;;;5056261;28;20028;-63
2022/04/25 07:51:31;;;;;;;16.98;12.35;;;11.80;68.80;;;;;;5054627;28;20037;-63
2022/04/25 07:53:56;;;;;;;17.75;12.10;;;11.80;68.80;;;;;;5054453;28;20037;-62
2022/04/25 07:56:22;;;;;;;17.83;12.27;;;11.80;68.80;;;;;;5054834;28;20048;-63
2022/04/25 07:58:48;;;;;;;18.13;12.25;;;11.80;68.80;;;;;;5055380;28;20454;-62
2022/04/25 08:01:14;;;;;;;17.75;12.48;;;11.80;68.90;;;;;;5044043;28;20027;-63
2022/04/25 08:03:39;;;;;;;19.15;12.60;;;11.80;69.00;;;;;;5036062;28;20056;-63
2022/04/25 08:06:06;;;;;;;19.52;13.90;;;11.80;68.90;;;;;;5052278;28;20036;-63
2022/04/25 08:08:32;;;;;;;16.60;11.93;;;11.80;69.00;;;;;;5040992;28;20030;-63
2022/04/25 08:10:58;;;;;;;18.55;12.15;;;11.90;69.00;;;;;;5051542;28;20017;-63
2022/04/25 08:18:53;;;;;;;20.52;13.23;;;11.90;69.00;;;;;;5053202;28;20112;-64
2022/04/25 08:21:19;;;;;;;20.13;13.82;;;11.90;68.90;;;;;;5048856;28;20108;-64
2022/04/25 08:23:45;;;;;;;19.88;13.90;;;11.90;68.90;;;;;;5054016;28;20048;-63
2022/04/25 08:26:12;;;;;;;21.45;14.93;;;11.90;68.90;;;;;;5051942;28;20025;-63
2022/04/25 08:28:37;;;;;;;21.88;14.23;;;12.00;68.90;;;;;;5055059;28;20025;-63
2022/04/25 08:31:04;;;;;;;20.23;14.45;;;12.00;68.80;;;;;;5051252;28;20055;-63
2022/04/25 08:33:30;;;;;;;22.13;15.90;;;12.00;68.80;;;;;;5053162;28;20647;-63
2022/04/25 08:35:58;;;;;;;21.27;15.50;;;12.00;68.80;;;;;;5052347;28;20025;-63
2022/04/25 08:38:24;;;;;;;22.40;15.68;;;12.10;68.80;;;;;;5049691;28;20033;-63
2022/04/25 08:40:51;;;;;;;21.40;15.18;;;12.10;68.80;;;;;;5049971;28;20024;-63
2022/04/25 08:43:17;;;;;;;23.85;15.10;;;12.10;68.80;;;;;;5036018;28;20061;-63
2022/04/25 08:45:45;;;;;;;21.67;15.07;;;12.10;68.80;;;;;;5033524;28;20308;-63
2022/04/25 08:48:12;;;;;;;20.88;15.10;;;12.10;69.00;;;;;;5052616;28;20051;-63
2022/04/25 08:50:40;;;;;;;24.25;15.55;;;12.10;69.00;;;;;;5052295;28;20028;-64
2022/04/25 08:53:07;;;;;;;24.80;16.30;;;12.10;69.10;;;;;;5042694;28;20433;-64
2022/04/25 08:55:33;;;;;;;22.52;15.23;;;12.10;69.10;;;;;;5036630;28;20025;-64
2022/04/25 08:58:01;;;;;;;21.38;14.25;;;12.10;69.00;;;;;;5035543;28;20022;-66
2022/04/25 09:00:27;;;;;;;22.17;16.13;;;12.10;69.00;;;;;;5041884;28;20021;-65
2022/04/25 09:02:54;;;;;;;23.52;15.57;;;12.20;68.90;;;;;;5065805;28;20033;-66
2022/04/25 09:05:21;;;;;;;22.35;15.02;;;12.20;68.80;;;;;;5055593;28;20450;-66
2022/04/25 09:07:47;;;;;;;23.27;14.90;;;12.30;68.80;;;;;;5042096;28;20039;-66
2022/04/25 09:10:17;;;;;;;24.38;14.95;;;12.30;68.60;;;;;;5055697;28;20029;-66
2022/04/25 09:12:46;;;;;;;21.80;14.82;;;12.40;68.50;;;;;;5055267;28;20025;-66
2022/04/25 09:15:12;;;;;;;24.67;17.20;;;12.40;68.50;;;;;;5058589;28;20029;-67
2022/04/25 09:17:38;;;;;;;23.50;14.65;;;12.40;68.40;;;;;;5056033;28;20090;-66
2022/04/25 09:20:06;;;;;;;22.30;15.85;;;12.40;68.30;;;;;;5058777;28;20221;-65
2022/04/25 09:22:35;;;;;;;19.88;15.00;;;12.40;68.20;;;;;;5052522;28;20025;-65
2022/04/25 09:25:20;;;;;;;23.77;15.15;;;12.40;68.30;;;;;;5055164;28;20032;-66
2022/04/25 09:28:06;;;;;;;22.58;15.63;;;12.50;68.40;;;;;;5057817;28;20021;-65
2022/04/25 09:30:31;;;;;;;21.33;15.18;;;12.40;68.20;;;;;;5057757;28;20048;-65
2022/04/25 09:32:57;;;;;;;23.33;15.20;;;12.50;68.20;;;;;;5059807;28;20041;-66
2022/04/25 09:35:37;;;;;;;24.40;15.45;;;12.50;68.10;;;;;;5058758;28;20039;-66
2022/04/25 09:38:08;;;;;;;22.50;15.27;;;12.50;68.30;;;;;;5055294;28;20350;-66
2022/04/25 09:40:35;;;;;;;20.05;14.57;;;12.50;68.10;;;;;;5049111;28;20026;-66
2022/04/25 09:43:11;;;;;;;23.77;16.48;;;12.50;68.00;;;;;;5054253;28;20358;-66
2022/04/25 09:45:41;;;;;;;22.92;16.55;;;12.50;68.20;;;;;;5050794;28;20111;-66
2022/04/25 09:48:16;;;;;;;25.05;15.75;;;12.50;68.10;;;;;;5054118;28;20029;-66
2022/04/25 09:51:04;;;;;;;21.92;15.50;;;12.50;67.90;;;;;;5053439;28;20032;-66
2022/04/25 09:53:47;;;;;;;24.92;14.35;;;12.60;67.80;;;;;;5052398;28;20472;-66
2022/04/25 09:56:15;;;;;;;24.08;15.30;;;12.60;67.80;;;;;;5055155;28;20048;-66
2022/04/25 09:58:43;;;;;;;20.48;14.82;;;12.60;67.80;;;;;;5050371;28;20036;-66
2022/04/25 10:01:14;;;;;;;22.95;16.20;;;12.60;67.80;;;;;;5051382;28;20021;-66
2022/04/25 10:03:41;;;;;;;20.83;14.70;;;12.60;68.40;;;;;;5059595;28;20032;-66
2022/04/25 10:06:07;;;;;;;22.63;15.45;;;12.60;67.70;;;;;;5058291;28;20369;-65
2022/04/25 10:08:35;;;;;;;22.55;14.80;;;12.70;67.60;;;;;;5050930;28;20090;-66
2022/04/25 10:11:11;;;;;;;23.13;15.27;;;12.70;67.60;;;;;;5043152;28;20132;-66
2022/04/25 10:13:38;;;;;;;22.88;15.43;;;12.60;67.60;;;;;;5049080;28;20082;-66
2022/04/25 10:16:04;;;;;;;25.27;15.63;;;12.60;67.50;;;;;;5051243;28;20485;-66
2022/04/25 10:18:31;;;;;;;22.85;15.45;;;12.60;67.50;;;;;;5044230;28;20033;-66
2022/04/25 10:21:00;;;;;;;23.20;15.38;;;12.60;67.60;;;;;;5046998;28;20025;-66
2022/04/25 10:23:26;;;;;;;23.42;14.70;;;12.60;67.70;;;;;;5040691;28;20033;-66
2022/04/25 10:25:57;;;;;;;21.73;15.07;;;12.50;67.60;;;;;;5041036;28;20090;-66
2022/04/25 10:28:25;;;;;;;23.95;15.77;;;12.60;67.70;;;;;;5043982;28;20034;-66
2022/04/25 10:30:51;;;;;;;22.13;15.35;;;12.50;67.60;;;;;;5049142;28;20025;-66
2022/04/25 10:33:21;;;;;;;21.92;14.10;;;12.50;67.60;;;;;;5049837;28;20042;-66
2022/04/25 10:35:51;;;;;;;18.42;14.13;;;12.60;67.80;;;;;;5049112;28;20033;-65
2022/04/25 10:38:49;;;;;;;18.70;12.68;;;12.50;67.60;;;;;;5049518;28;20025;-65
2022/04/25 10:44:17;;;;;;;17.15;12.02;;;12.60;67.10;;;;;;5046204;28;20067;-65
2022/04/25 10:47:05;;;;;;;20.70;13.05;;;12.60;67.00;;;;;;5051133;28;20055;-66
2022/04/25 10:49:35;;;;;;;15.85;11.70;;;12.60;66.80;;;;;;5040377;28;20071;-66
2022/04/25 10:52:02;;;;;;;17.42;12.50;;;12.60;66.60;;;;;;5050326;28;20026;-66
2022/04/25 10:54:49;;;;;;;17.42;12.07;;;12.60;66.40;;;;;;5045852;28;20031;-66
2022/04/25 10:57:16;;;;;;;19.35;12.77;;;12.70;66.30;;;;;;5042682;28;20095;-66
2022/04/25 10:59:41;;;;;;;18.38;11.52;;;12.70;66.20;;;;;;5050200;28;20060;-66
2022/04/25 11:02:21;;;;;;;16.38;12.32;;;12.80;66.00;;;;;;5038753;28;20029;-66
2022/04/25 11:04:47;;;;;;;15.30;11.10;;;12.90;65.90;;;;;;5038690;28;20072;-66
2022/04/25 11:07:21;;;;;;;15.25;11.10;;;12.90;65.70;;;;;;5036099;28;20021;-66
2022/04/25 11:09:48;;;;;;;16.52;11.52;;;12.90;65.50;;;;;;5045123;28;20351;-66
2022/04/25 11:12:13;;;;;;;17.63;11.25;;;13.00;65.40;;;;;;5036905;28;20120;-66
2022/04/25 11:15:03;;;;;;;18.10;12.40;;;13.00;65.40;;;;;;5038123;28;20030;-66
2022/04/25 11:17:28;;;;;;;16.17;12.38;;;13.00;65.30;;;;;;5036046;28;20354;-66
2022/04/25 11:19:55;;;;;;;18.08;12.10;;;13.00;65.20;;;;;;5050115;28;20035;-66
2022/04/25 11:22:35;;;;;;;15.80;10.68;;;13.00;65.10;;;;;;5053689;28;20031;-66
2022/04/25 11:25:25;;;;;;;18.05;12.05;;;13.10;65.00;;;;;;5064015;28;20068;-66
2022/04/25 11:28:04;;;;;;;20.58;12.35;;;13.20;64.70;;;;;;5043330;28;20508;-66
2022/04/25 11:30:31;;;;;;;19.42;11.27;;;13.20;64.40;;;;;;5033538;28;20083;-66
2022/04/25 11:33:02;;;;;;;18.50;12.52;;;13.20;64.20;;;;;;5052977;28;20041;-66
2022/04/25 11:35:27;;;;;;;19.90;11.20;;;13.20;64.30;;;;;;5038843;28;20041;-66
2022/04/25 11:37:56;;;;;;;16.83;12.15;;;13.20;64.20;;;;;;5060524;28;20119;-66
2022/04/25 11:40:23;;;;;;;18.50;11.80;;;13.20;64.10;;;;;;5036469;28;20371;-66
2022/04/25 11:42:49;;;;;;;17.77;11.15;;;13.20;64.20;;;;;;5035818;28;20112;-66
2022/04/25 11:45:14;;;;;;;17.25;11.70;;;13.10;64.20;;;;;;5035367;28;20406;-66
2022/04/25 11:47:40;;;;;;;16.33;11.38;;;13.10;64.20;;;;;;5034073;28;20033;-65
2022/04/25 11:50:12;;;;;;;17.10;11.30;;;13.10;64.20;;;;;;5036168;28;20033;-65
2022/04/25 11:52:48;;;;;;;17.45;11.05;;;13.10;64.20;;;;;;5043296;28;20028;-66
2022/04/25 11:55:15;;;;;;;18.55;12.10;;;13.10;64.20;;;;;;5038564;28;20025;-66
2022/04/25 11:57:43;;;;;;;16.65;11.07;;;13.10;64.10;;;;;;5050671;28;20044;-65
2022/04/25 12:00:11;;;;;;;16.35;10.52;;;13.10;64.00;;;;;;5038000;28;20060;-65
2022/04/25 12:02:40;;;;;;;22.92;12.00;;;13.10;63.90;;;;;;5037010;28;20120;-66
2022/04/25 12:05:07;;;;;;;15.15;10.48;;;13.10;64.00;;;;;;5044945;28;20033;-65
2022/04/25 12:07:34;;;;;;;16.30;11.02;;;13.10;64.00;;;;;;5046973;28;20040;-65
2022/04/25 12:15:40;;;;;;;16.27;11.10;;;13.30;63.90;;;;;;5033567;28;20432;-66
2022/04/25 12:18:17;;;;;;;16.45;11.18;;;13.30;63.80;;;;;;5044398;28;20112;-65
2022/04/25 12:20:47;;;;;;;18.15;11.18;;;13.40;63.90;;;;;;5046718;28;20025;-66
2022/04/25 12:23:21;;;;;;;16.77;10.57;;;13.50;63.90;;;;;;5048321;28;20100;-66
2022/04/25 12:25:47;;;;;;;15.65;10.32;;;13.50;63.90;;;;;;5028667;28;20033;-65
2022/04/25 12:28:12;;;;;;;17.10;10.73;;;13.50;63.80;;;;;;5048350;28;20040;-65
2022/04/25 12:30:54;;;;;;;16.90;10.88;;;13.50;63.70;;;;;;5040584;28;20478;-64
2022/04/25 12:33:22;;;;;;;16.55;10.52;;;13.50;63.60;;;;;;5045612;28;20041;-66
2022/04/25 12:35:51;;;;;;;16.33;11.18;;;13.50;63.50;;;;;;5048226;28;20132;-66
2022/04/25 12:38:59;;;;;;;15.77;9.75;;;13.60;63.40;;;;;;5040603;28;20033;-66
2022/04/25 12:41:36;;;;;;;15.52;10.05;;;13.60;63.20;;;;;;5072010;28;20357;-66
2022/04/25 12:44:11;;;;;;;14.32;10.07;;;13.50;63.30;;;;;;5071636;28;20040;-66
2022/04/25 12:46:48;;;;;;;15.60;10.60;;;13.50;63.30;;;;;;5076724;28;20036;-65
2022/04/25 12:49:15;;;;;;;17.02;10.77;;;13.50;63.30;;;;;;5073841;28;20044;-65
2022/04/25 12:51:47;;;;;;;17.67;10.63;;;13.50;63.50;;;;;;5069161;28;20040;-65
2022/04/25 12:54:32;;;;;;;16.45;10.30;;;13.50;63.70;;;;;;5071225;28;20064;-65
2022/04/25 12:57:15;;;;;;;17.25;10.05;;;13.40;63.80;;;;;;5072501;28;20083;-65
2022/04/25 12:59:45;;;;;;;15.57;10.45;;;13.40;63.80;;;;;;5070900;28;20033;-65
2022/04/25 13:02:14;;;;;;;17.30;11.02;;;13.30;64.00;;;;;;5069527;28;20040;-65
2022/04/25 13:04:55;;;;;;;17.73;11.13;;;13.30;64.20;;;;;;5050868;28;20406;-65
2022/04/25 13:07:30;;;;;;;17.15;10.48;;;13.30;64.20;;;;;;5053016;28;20509;-64